Terminal Aerodrome Forecast
Issued by NWS

Home | Current Version | Previous Version | Text Only | Print | Product List | Glossary On
Versions: 1 2 3 4 5 6 7 8 9 10 11 12 13 14 15 16 17
000
FTUS46 KMTR 280500
TAFMRY
TAF
KMRY 280531Z 2806/2906 24004KT 6SM BR OVC006
     FM281800 28005KT P6SM BKN011
     FM281900 29007KT P6SM FEW012
     FM290200 24004KT P6SM BKN009=

USA.gov is the U.S. government's official web portal to all federal, state and local government web resources and services.